Heringsdorf Airport EDAH

Flugplatz Daten

Name: Heringsdorf Airport

Ident: EDAH

Lat: 53,87870026

Long: 14,15229988

Platzhöhe: 93 ft

IataCode: HDF

City: Heringsdorf

Metar

2021/10/16 15:50
EDAH 161550Z 24009KT CAVOK 11/07 Q1018

Taf

Gewünschte Webcam nicht vorhanden? Dann fügen Sie eine hinzu. Sie wird dann so schnell wie möglich freigeschaltet
Url: Title: